WetterOnline ( https://www.wetteronline.at )

Wetter aktuell Leck

Aktuelles Wetter: Leck (17m)

6-stündlich | Neueste Meldungen
Ortszeit Temperatur Wetter
Di, 25.02. 19:00 3.8° C wolkig
Di, 25.02. 13:00 6.5° C bedeckt
Di, 25.02. 7:00 5.4° C bewölkt
Di, 25.02. 1:00 7.7° C bewölkt
Mo, 24.02. 19:00 1.6° C leichter Regen
Mo, 24.02. 13:00 6.1° C bewölkt
Mo, 24.02. 7:00 4.3° C bedeckt
Mo, 24.02. 1:00 6.0° C bewölkt
Ortszeit Temperatur Wetter
Di, 25.02. 20:00 3.9° C wolkenlos
Di, 25.02. 19:50 3.9° C wolkenlos
Di, 25.02. 19:40 4.0° C wolkenlos
Di, 25.02. 19:30 3.8° C fast wolkenlos
Di, 25.02. 19:20 3.8° C fast wolkenlos
Di, 25.02. 19:10 4.0° C fast wolkenlos
Di, 25.02. 19:00 3.8° C wolkig
Di, 25.02. 18:30 4.1° C leicht bewölkt
Di, 25.02. 18:00 4.6° C wolkig
Di, 25.02. 17:30 4.5° C leicht bewölkt
Di, 25.02. 17:00 5.2° C leicht bewölkt
Ortszeit Relative Feuchte Sichtweite
Di, 25.02. 19:00 80% 50 km
Di, 25.02. 13:00 74% 30 km
Di, 25.02. 7:00 75% 25 km
Di, 25.02. 1:00 88% 19 km
Mo, 24.02. 19:00 95% 14 km
Mo, 24.02. 13:00 92% 14 km
Mo, 24.02. 7:00 88% 30 km
Mo, 24.02. 1:00 84% 21 km
Ortszeit Relative Feuchte Sichtweite
Di, 25.02. 20:00 79% 45 km
Di, 25.02. 19:50 79% -
Di, 25.02. 19:40 78% -
Di, 25.02. 19:30 81% 40 km
Di, 25.02. 19:20 81% -
Di, 25.02. 19:10 80% -
Di, 25.02. 19:00 80% 50 km
Di, 25.02. 18:30 83% 35 km
Di, 25.02. 18:00 81% 35 km
Di, 25.02. 17:30 81% 40 km
Di, 25.02. 17:00 78% 28 km
Ortszeit Niederschlagsmenge Niederschlagsart
Di, 25.02. 19:00 0.4 l/m2 in 12 Std. Schnee, Regen
Di, 25.02. 13:00 0.1 l/m2 in 6 Std. Regen
Di, 25.02. 7:00 5 l/m2 in 12 Std. Regen
Di, 25.02. 1:00 5 l/m2 in 6 Std. Schnee, Regen
Mo, 24.02. 19:00 5 l/m2 in 12 Std. Schnee, Regen
Mo, 24.02. 13:00 0.0 l/m2 in 6 Std. -
Mo, 24.02. 7:00 0.6 l/m2 in 12 Std. Regen
Mo, 24.02. 1:00 0.6 l/m2 in 6 Std. Regen
Ortszeit Niederschlagsmenge Niederschlagsart
Di, 25.02. 20:00 0.0 l/m2 in 1 Std. -
Di, 25.02. 19:50 keine Meldung -
Di, 25.02. 19:40 keine Meldung -
Di, 25.02. 19:30 0.0 l/m2 in 1 Std. -
Di, 25.02. 19:20 keine Meldung -
Di, 25.02. 19:10 keine Meldung -
Di, 25.02. 19:00 0.1 l/m2 in 1 Std. Schnee, Regen
Di, 25.02. 18:30 0.1 l/m2 in 1 Std. Schneeregen
Di, 25.02. 18:00 0.1 l/m2 in 1 Std. Regen
Di, 25.02. 17:30 0.1 l/m2 in 1 Std. Schneeregen
Di, 25.02. 17:00 0.1 l/m2 in 1 Std. Regen
Ortszeit Stärke Spitze Richtung
km/h Bft. km/h Grad Sektor
Di, 25.02. 19:00 32 5 94 270° W
Di, 25.02. 13:00 54 7 91 240° SW
Di, 25.02. 7:00 37 5 70 240° SW
Di, 25.02. 1:00 35 5 50 240° SW
Mo, 24.02. 19:00 25 4 40 110° O
Mo, 24.02. 13:00 17 3 24 200° S
Mo, 24.02. 7:00 13 3 48 290° W
Mo, 24.02. 1:00 28 4 69 270° W
Ortszeit Stärke Spitze Richtung
km/h Bft. km/h Grad Sektor
Di, 25.02. 20:00 24 4 43 270° W
Di, 25.02. 19:50 24 4 - 270° W
Di, 25.02. 19:40 24 4 - 270° W
Di, 25.02. 19:30 24 4 43 270° W
Di, 25.02. 19:20 24 4 - 270° W
Di, 25.02. 19:10 26 4 - 270° W
Di, 25.02. 19:00 32 5 50 270° W
Di, 25.02. 18:30 30 5 50 270° W
Di, 25.02. 18:00 29 5 58 270° W
Di, 25.02. 17:30 39 6 57 280° W
Di, 25.02. 17:00 40 6 65 270° W
Ortszeit Untergrenze Bedeckung Gattung
total tief tief mittel hoch
Di, 25.02. 19:00 570 m 6/8 6/8 - - -
Di, 25.02. 13:00 630 m 8/8 8/8 - - -
Di, 25.02. 7:00 780 m 7/8 7/8 - - -
Di, 25.02. 1:00 510 m 7/8 7/8 - - -
Mo, 24.02. 19:00 210 m 7/8 7/8 - - -
Mo, 24.02. 13:00 210 m 7/8 7/8 - - -
Mo, 24.02. 7:00 5700 m 8/8 8/8 - - -
Mo, 24.02. 1:00 810 m 7/8 7/8 - - -
Ortszeit Bedeckungsgrad in Achtel und Wolkenuntergrenze
Di, 25.02. 20:00 keine Wolken
Di, 25.02. 19:50 keine Wolken
Di, 25.02. 19:40 keine Wolken
Di, 25.02. 19:30 1(1500m)
Di, 25.02. 19:20 1(1500m)
Di, 25.02. 19:10 1(1170m)
Di, 25.02. 19:00 1(570m) 4(1050m) 6(1320m)
Di, 25.02. 18:30 1(540m) 4(840m)
Di, 25.02. 18:00 1(540m) 5(960m) 5(1140m)
Di, 25.02. 17:30 2(510m) 3(690m)
Di, 25.02. 17:00 4(570m) 3(690m)
Ortszeit Luftdruck NN (hPa) Tendenz (hPa in 3 Std.)
Di, 25.02. 19:00 989 + 1,7
Di, 25.02. 13:00 986 - 2,2
Di, 25.02. 7:00 990 - 0,4
Di, 25.02. 1:00 991 - 2,8
Mo, 24.02. 19:00 1000 - 7,2
Mo, 24.02. 13:00 1012 - 3,3
Mo, 24.02. 7:00 1016 + 1,3
Mo, 24.02. 1:00 1012 + 3,0
Ortszeit Luftdruck NN (hPa) Tendenz (hPa in 3 Std.)
Di, 25.02. 20:00 989 + 1,2
Di, 25.02. 19:50 989 keine Meldung
Di, 25.02. 19:40 989 keine Meldung
Di, 25.02. 19:30 989 + 1,6
Di, 25.02. 19:20 989 keine Meldung
Di, 25.02. 19:10 989 keine Meldung
Di, 25.02. 19:00 989 + 1,7
Di, 25.02. 18:30 989 + 1,7
Di, 25.02. 18:00 989 + 1,8
Di, 25.02. 17:30 989 + 2,1
Di, 25.02. 17:00 988 + 2,3
Ortszeit Schneehöhe (cm)
Di, 25.02. 19:00 0
Di, 25.02. 13:00 0
Di, 25.02. 7:00 0
Di, 25.02. 1:00 0
Mo, 24.02. 19:00 0
Mo, 24.02. 13:00 0
Mo, 24.02. 7:00 0
Mo, 24.02. 1:00 0
Ortszeit Schneehöhe (cm)
Di, 25.02. 20:00 0
Di, 25.02. 19:50 0
Di, 25.02. 19:40 0
Di, 25.02. 19:30 0
Di, 25.02. 19:20 0
Di, 25.02. 19:10 0
Di, 25.02. 19:00 0
Di, 25.02. 18:30 0
Di, 25.02. 18:00 0
Di, 25.02. 17:30 0
Di, 25.02. 17:00 0
Link zu dieser Seite / Seite empfehlen

Das Wetter in ...